Time;durP1;ratioP1;P1;durP2;ratioP2;P2;SDS_P1;SDS_P2;PMS_P1;PMS_P2;Temp;Humidity;BMP_temperature;BMP_pressure;BME280_temperature;BME280_humidity;BME280_pressure;Samples;Min_cycle;Max_cycle;Signal;HPM_P1;HPM_P2
2020/12/10 00:00:41;;;;;;;41.88;21.00;;;1.70;90.00;;;2.00;72.48;99864.47;4955048;28;20086;-88
2020/12/10 00:03:08;;;;;;;37.30;19.83;;;1.70;90.10;;;2.03;72.58;99864.16;4954827;28;20174;-88
2020/12/10 00:05:35;;;;;;;40.67;20.55;;;1.70;90.00;;;2.04;72.60;99873.06;4954771;28;20516;-88
2020/12/10 00:08:02;;;;;;;43.42;20.77;;;1.70;90.00;;;2.03;72.47;99872.19;4954968;28;20204;-88
2020/12/10 00:10:29;;;;;;;40.65;21.13;;;1.70;90.10;;;1.97;72.05;99863.91;4954832;28;20138;-88
2020/12/10 00:12:56;;;;;;;39.88;19.83;;;1.70;89.80;;;1.99;72.53;99861.91;4954600;28;20055;-88
2020/12/10 00:15:24;;;;;;;39.42;20.38;;;1.60;90.00;;;2.02;72.63;99864.28;4957697;28;20050;-88
2020/12/10 00:17:50;;;;;;;39.65;19.65;;;1.70;90.00;;;2.08;72.75;99861.88;4973332;28;20051;-88
2020/12/10 00:20:17;;;;;;;41.40;20.50;;;1.70;90.10;;;2.05;72.51;99861.31;4973809;28;20077;-88
2020/12/10 00:22:44;;;;;;;39.88;19.52;;;1.70;90.00;;;2.04;72.65;99862.34;4973824;28;20039;-88
2020/12/10 00:25:11;;;;;;;40.45;20.20;;;1.70;90.00;;;2.04;72.96;99848.91;4973518;28;20496;-87
2020/12/10 00:27:38;;;;;;;46.20;21.10;;;1.70;90.10;;;2.01;72.57;99846.50;4974021;28;20130;-88
2020/12/10 00:30:07;;;;;;;47.03;21.58;;;1.70;90.00;;;2.04;72.63;99851.59;4973650;28;20125;-87
2020/12/10 00:32:35;;;;;;;42.88;21.40;;;1.80;90.00;;;2.05;72.70;99848.75;4973969;28;20074;-88
2020/12/10 00:35:02;;;;;;;45.28;21.10;;;1.70;89.80;;;1.98;71.93;99847.66;4970991;28;20082;-88
2020/12/10 00:37:29;;;;;;;43.88;21.15;;;1.70;89.60;;;2.01;72.71;99843.81;4973602;28;20050;-88
2020/12/10 00:39:56;;;;;;;41.72;20.83;;;1.70;89.80;;;1.93;72.64;99829.28;4973711;28;20090;-88
2020/12/10 00:42:23;;;;;;;44.25;21.05;;;1.70;89.60;;;1.95;72.48;99835.34;4973715;28;20072;-88
2020/12/10 00:44:50;;;;;;;42.95;20.88;;;1.60;89.70;;;1.90;72.49;99834.94;4968798;28;20047;-88
2020/12/10 00:47:17;;;;;;;43.08;21.60;;;1.60;89.50;;;1.91;71.97;99831.28;4954015;28;20118;-88
2020/12/10 00:49:47;;;;;;;42.85;20.92;;;1.60;89.40;;;1.87;72.18;99835.25;4952607;29;20074;-88
2020/12/10 00:52:15;;;;;;;41.00;20.33;;;1.60;89.80;;;1.85;72.52;99825.66;4952642;29;20143;-88
2020/12/10 00:54:42;;;;;;;37.92;20.23;;;1.60;89.90;;;1.88;72.74;99830.72;4952303;29;20047;-88
2020/12/10 00:57:13;;;;;;;41.60;20.05;;;1.60;89.80;;;1.95;72.41;99829.16;4968694;28;20058;-88
2020/12/10 00:59:41;;;;;;;41.65;20.95;;;1.60;89.80;;;1.86;71.69;99827.34;4954136;28;20488;-88
2020/12/10 01:02:08;;;;;;;43.15;20.23;;;1.60;89.40;;;1.87;72.70;99821.84;4952433;29;20086;-88
2020/12/10 01:04:36;;;;;;;43.17;21.33;;;1.60;90.00;;;1.86;72.48;99813.94;4953576;28;20102;-88
2020/12/10 01:07:03;;;;;;;39.72;19.77;;;1.60;89.80;;;1.85;73.00;99813.09;4954182;28;20051;-88
2020/12/10 01:09:30;;;;;;;35.78;19.33;;;1.60;90.00;;;1.87;72.30;99808.41;4953988;28;20126;-88
2020/12/10 01:11:57;;;;;;;38.90;19.02;;;1.60;89.80;;;1.85;72.13;99805.03;4953930;28;20086;-88
2020/12/10 01:14:24;;;;;;;40.40;19.95;;;1.60;89.70;;;1.87;72.36;99795.00;4952333;29;20153;-88
2020/12/10 01:16:50;;;;;;;39.45;19.55;;;1.60;90.00;;;1.89;73.01;99800.22;4954149;28;20067;-88
2020/12/10 01:19:17;;;;;;;42.65;19.70;;;1.60;90.00;;;1.98;72.26;99793.13;4953777;28;20086;-88
2020/12/10 01:21:44;;;;;;;34.03;18.77;;;1.60;90.00;;;1.95;72.32;99795.09;4952497;29;20587;-88
2020/12/10 01:24:12;;;;;;;38.17;18.17;;;1.60;89.90;;;1.97;72.36;99786.09;4953375;28;20134;-88
2020/12/10 01:26:39;;;;;;;36.58;18.48;;;1.60;90.00;;;1.99;73.11;99779.56;4953392;28;20141;-88
2020/12/10 01:29:07;;;;;;;34.92;16.88;;;1.70;90.20;;;1.95;72.55;99770.97;4953782;28;20531;-88
2020/12/10 01:31:34;;;;;;;37.78;19.23;;;1.70;90.20;;;1.95;73.40;99784.38;4957420;28;20078;-88
2020/12/10 01:34:01;;;;;;;35.92;17.08;;;1.70;90.20;;;1.93;73.61;99783.69;4955828;28;20145;-88
2020/12/10 01:36:31;;;;;;;37.33;17.80;;;1.70;90.50;;;2.02;73.10;99783.78;4957811;28;20180;-88
2020/12/10 01:38:59;;;;;;;35.33;17.67;;;1.70;90.60;;;2.05;73.25;99784.34;4957497;28;20565;-88
2020/12/10 01:41:31;;;;;;;35.78;17.70;;;1.80;90.80;;;2.07;73.20;99776.13;4957566;28;20082;-88
2020/12/10 01:44:03;;;;;;;38.33;17.27;;;1.80;90.40;;;2.06;73.11;99790.56;4957121;28;20122;-88
2020/12/10 01:46:30;;;;;;;35.25;17.65;;;1.80;90.20;;;2.10;73.19;99789.28;4957343;28;20118;-88
2020/12/10 01:48:57;;;;;;;37.58;17.42;;;1.90;90.40;;;2.13;73.19;99780.91;4956210;29;20511;-88
2020/12/10 01:51:25;;;;;;;34.47;17.25;;;1.90;90.70;;;2.11;73.38;99772.16;4957147;28;20126;-88
2020/12/10 01:53:51;;;;;;;34.00;16.92;;;1.90;90.60;;;2.12;73.46;99765.81;4963066;28;20122;-88
2020/12/10 01:56:18;;;;;;;33.70;17.27;;;2.00;90.40;;;2.15;73.45;99768.19;4976374;28;20066;-88
2020/12/10 01:58:46;;;;;;;35.10;17.60;;;2.00;90.50;;;2.16;73.67;99764.50;4975954;28;20049;-88
2020/12/10 02:01:14;;;;;;;32.55;17.17;;;2.00;90.60;;;2.17;73.15;99766.22;4974763;28;20586;-88
2020/12/10 02:03:41;;;;;;;34.15;17.02;;;2.00;90.30;;;2.21;73.07;99770.28;4974387;28;20105;-88
2020/12/10 02:06:07;;;;;;;31.02;16.92;;;2.00;90.10;;;2.17;73.68;99765.34;4975934;28;20065;-88
2020/12/10 02:08:34;;;;;;;34.30;17.27;;;2.00;90.20;;;2.18;73.32;99762.53;4976230;28;20793;-88
2020/12/10 02:11:01;;;;;;;31.15;17.15;;;2.00;90.60;;;2.21;74.10;99756.88;4976075;28;20047;-88
2020/12/10 02:13:29;;;;;;;33.60;16.75;;;2.00;90.40;;;2.25;73.71;99762.78;4975938;28;20081;-88
2020/12/10 02:15:57;;;;;;;33.50;16.77;;;2.00;90.60;;;2.18;73.50;99770.56;4976097;28;20126;-88
2020/12/10 02:18:23;;;;;;;34.90;16.90;;;2.00;90.50;;;2.21;73.89;99762.25;4975936;28;20047;-88
2020/12/10 02:20:50;;;;;;;31.73;16.52;;;2.10;90.40;;;2.25;73.42;99763.63;4975419;28;20074;-88
2020/12/10 02:23:18;;;;;;;32.25;16.83;;;2.10;90.60;;;2.23;74.13;99762.06;4975223;28;20766;-88
2020/12/10 02:25:45;;;;;;;32.80;16.60;;;2.10;90.60;;;2.25;73.79;99762.78;4974368;28;20085;-88
2020/12/10 02:28:14;;;;;;;33.08;16.50;;;2.10;90.80;;;2.25;73.60;99760.94;4975540;28;20051;-88
2020/12/10 02:30:42;;;;;;;32.33;15.85;;;2.10;90.80;;;2.22;73.44;99763.91;4975230;28;20133;-88
2020/12/10 02:33:11;;;;;;;32.15;16.90;;;2.10;90.60;;;2.27;74.17;99753.56;4975053;28;20757;-88
2020/12/10 02:35:40;;;;;;;35.17;17.35;;;2.10;90.80;;;2.31;73.95;99746.91;4974783;28;20066;-88
2020/12/10 02:38:11;;;;;;;33.33;16.85;;;2.10;90.80;;;2.31;73.51;99746.91;4975137;28;20121;-88
2020/12/10 02:40:44;;;;;;;32.33;16.33;;;2.10;90.70;;;2.30;74.14;99745.25;4973539;28;20142;-88
2020/12/10 02:43:13;;;;;;;35.88;16.33;;;2.10;90.70;;;2.33;74.30;99744.09;4957519;28;20123;-88
2020/12/10 02:45:43;;;;;;;33.83;17.85;;;2.10;90.80;;;2.31;74.07;99744.22;4955466;28;20761;-88
2020/12/10 02:48:10;;;;;;;37.22;17.50;;;2.10;90.60;;;2.33;74.20;99742.22;4955207;28;20043;-88
2020/12/10 02:50:38;;;;;;;32.50;16.33;;;2.10;90.90;;;2.30;74.11;99734.50;4970117;28;20385;-88
2020/12/10 02:53:06;;;;;;;35.83;16.25;;;2.20;90.80;;;2.32;73.46;99721.75;4955226;28;20779;-88
2020/12/10 02:55:32;;;;;;;34.38;17.27;;;2.20;90.30;;;2.32;73.80;99729.81;4954895;28;20051;-88
2020/12/10 02:58:00;;;;;;;37.15;17.52;;;2.20;90.50;;;2.35;73.97;99732.19;4955360;28;20071;-88
2020/12/10 03:00:28;;;;;;;33.33;16.38;;;2.10;90.60;;;2.34;73.35;99724.28;4955478;28;20531;-88
2020/12/10 03:02:55;;;;;;;30.00;15.20;;;2.20;90.60;;;2.36;73.62;99719.59;4955019;28;20047;-87
2020/12/10 03:05:22;;;;;;;31.00;16.10;;;2.10;90.70;;;2.35;73.53;99716.06;4954784;28;20051;-88
2020/12/10 03:07:48;;;;;;;33.67;16.02;;;2.10;90.50;;;2.26;73.16;99711.59;4955189;28;20143;-88
2020/12/10 03:10:15;;;;;;;30.67;15.73;;;2.10;90.40;;;2.26;73.60;99721.50;4955127;28;20127;-88
2020/12/10 03:12:42;;;;;;;32.88;16.58;;;2.10;90.50;;;2.20;73.89;99717.59;4973927;28;20551;-88
2020/12/10 03:15:09;;;;;;;33.92;16.38;;;2.10;90.40;;;2.22;73.73;99710.22;4974117;28;20133;-88
2020/12/10 03:17:36;;;;;;;34.42;17.42;;;2.10;90.60;;;2.23;73.26;99711.94;4973957;28;20133;-88
2020/12/10 03:20:04;;;;;;;34.00;17.55;;;2.00;90.40;;;2.23;73.88;99705.69;4974342;28;20074;-88
2020/12/10 03:22:32;;;;;;;33.63;15.75;;;2.00;90.20;;;2.22;73.88;99702.16;4973770;28;20070;-88
2020/12/10 03:24:58;;;;;;;32.72;16.05;;;2.00;90.30;;;2.22;73.51;99699.47;4974281;28;20075;-88
2020/12/10 03:27:26;;;;;;;33.03;16.27;;;2.00;90.20;;;2.21;73.41;99700.50;4973909;28;20133;-88
2020/12/10 03:29:53;;;;;;;30.58;15.73;;;1.90;90.20;;;2.11;72.84;99697.88;4974054;28;20575;-88
2020/12/10 03:32:23;;;;;;;30.58;15.85;;;1.90;90.10;;;2.10;72.97;99696.16;4974280;28;20471;-88
2020/12/10 03:34:50;;;;;;;35.92;16.73;;;1.90;90.20;;;2.11;73.39;99691.63;4973705;28;20703;-88
2020/12/10 03:37:17;;;;;;;34.45;16.40;;;1.90;90.20;;;2.12;73.17;99696.03;4973825;28;20074;-88
2020/12/10 03:39:45;;;;;;;35.38;16.00;;;1.90;90.10;;;2.09;73.38;99696.31;4973819;28;20587;-88
2020/12/10 03:42:11;;;;;;;31.30;16.33;;;1.90;90.10;;;2.07;73.14;99698.31;4973573;28;20061;-88
2020/12/10 03:44:38;;;;;;;35.00;17.73;;;1.90;90.10;;;2.04;73.35;99696.78;4967889;28;20067;-88
2020/12/10 03:47:05;;;;;;;37.38;17.17;;;1.80;90.00;;;2.00;73.16;99689.16;4954026;28;20480;-88
2020/12/10 03:49:33;;;;;;;30.58;15.95;;;1.80;89.90;;;2.01;73.16;99690.88;4952867;29;20059;-88
2020/12/10 03:52:00;;;;;;;32.83;16.67;;;2.00;90.00;;;2.03;72.56;99676.28;4953549;28;20047;-88
2020/12/10 03:54:27;;;;;;;34.08;16.10;;;1.80;90.00;;;1.98;73.03;99689.34;4953878;28;20118;-88
2020/12/10 03:56:53;;;;;;;35.28;16.77;;;1.80;89.80;;;1.97;73.14;99692.16;4954136;28;20043;-88
2020/12/10 03:59:20;;;;;;;33.25;16.60;;;1.70;90.00;;;1.97;72.54;99684.94;4953998;28;20468;-87
2020/12/10 04:01:47;;;;;;;32.65;16.38;;;1.70;89.90;;;1.97;72.50;99686.78;4954241;28;20146;-88
2020/12/10 04:04:14;;;;;;;32.50;16.50;;;1.70;90.00;;;1.90;72.02;99692.75;4953689;28;20098;-88
2020/12/10 04:06:43;;;;;;;34.63;16.65;;;1.70;89.60;;;1.87;72.68;99684.16;4954053;28;20123;-88
2020/12/10 04:09:10;;;;;;;33.13;16.38;;;1.70;89.90;;;1.85;72.97;99687.00;4954431;28;20160;-87
2020/12/10 04:11:37;;;;;;;32.28;16.42;;;1.70;90.00;;;1.87;72.81;99685.00;4952459;29;20069;-88
2020/12/10 04:14:04;;;;;;;33.88;16.40;;;1.60;90.00;;;1.89;72.92;99684.88;4953702;28;20082;-88
2020/12/10 04:16:32;;;;;;;35.42;17.55;;;1.70;90.00;;;1.86;72.30;99688.66;4954115;28;20129;-88
2020/12/10 04:18:59;;;;;;;31.30;16.17;;;1.60;89.80;;;1.84;72.89;99679.09;4953373;28;20125;-88
2020/12/10 04:21:26;;;;;;;35.30;16.75;;;1.60;89.70;;;1.83;73.05;99683.63;4953770;28;20858;-88
2020/12/10 04:23:54;;;;;;;35.40;17.55;;;1.60;90.00;;;1.87;72.80;99685.00;4953513;28;20134;-88
2020/12/10 04:26:21;;;;;;;32.63;16.17;;;1.60;89.70;;;1.87;72.77;99681.47;4953556;28;20047;-88
2020/12/10 04:28:48;;;;;;;36.05;18.13;;;1.60;89.90;;;1.93;72.76;99679.03;4953376;28;20118;-88
2020/12/10 04:31:16;;;;;;;37.88;18.30;;;1.70;90.00;;;1.88;72.84;99681.31;4966455;28;20047;-88
2020/12/10 04:33:43;;;;;;;35.15;17.55;;;1.60;90.00;;;1.88;72.59;99675.94;4972210;28;20058;-88
2020/12/10 04:36:10;;;;;;;36.95;18.38;;;1.60;89.90;;;1.87;72.67;99676.13;4972461;28;20082;-88
2020/12/10 04:38:38;;;;;;;33.40;17.58;;;1.60;90.00;;;1.85;72.77;99676.25;4958224;28;20186;-88
2020/12/10 04:41:08;;;;;;;34.58;16.70;;;1.60;89.80;;;1.78;72.22;99683.22;4953019;28;20130;-88
2020/12/10 04:43:43;;;;;;;34.65;16.75;;;1.50;89.60;;;1.73;72.71;99682.81;4952820;28;20043;-88
2020/12/10 04:46:11;;;;;;;37.10;18.67;;;1.50;89.70;;;1.73;72.52;99682.81;4953323;29;20095;-88
2020/12/10 04:48:40;;;;;;;34.97;16.95;;;1.50;89.70;;;1.76;72.16;99678.00;4953150;28;20134;-88
2020/12/10 04:51:08;;;;;;;34.80;17.45;;;1.50;89.60;;;1.81;72.77;99674.88;4953128;28;20122;-88
2020/12/10 04:53:35;;;;;;;37.25;17.67;;;1.50;89.80;;;1.78;72.28;99675.16;4952855;28;20055;-87
2020/12/10 04:56:08;;;;;;;36.25;17.25;;;1.50;89.60;;;1.81;71.93;99674.00;4953559;28;20047;-88
2020/12/10 04:58:35;;;;;;;39.63;18.15;;;1.50;89.90;;;1.80;71.93;99667.81;4953327;28;20448;-87
2020/12/10 05:01:03;;;;;;;36.38;17.30;;;1.50;89.70;;;1.82;71.81;99665.81;4953301;28;20139;-88
2020/12/10 05:03:32;;;;;;;35.67;18.17;;;1.50;89.50;;;1.76;71.76;99669.09;4952825;28;20047;-88
2020/12/10 05:06:11;;;;;;;34.85;17.58;;;1.50;89.40;;;1.71;72.00;99666.88;4951793;29;20064;-88
2020/12/10 05:08:38;;;;;;;39.50;17.08;;;1.50;89.70;;;1.77;71.75;99660.03;4951405;29;20118;-88
2020/12/10 05:11:06;;;;;;;37.53;17.95;;;1.50;89.70;;;1.77;71.96;99662.72;4951701;29;20039;-88
2020/12/10 05:13:33;;;;;;;38.83;18.23;;;1.50;89.70;;;1.78;72.11;99671.66;4951530;28;20047;-88
2020/12/10 05:16:00;;;;;;;38.13;18.25;;;1.50;89.50;;;1.75;72.43;99664.72;4952970;28;20102;-88
2020/12/10 05:18:28;;;;;;;42.72;18.83;;;1.50;89.80;;;1.78;71.90;99660.91;4958322;28;20139;-88
2020/12/10 05:20:57;;;;;;;41.13;19.67;;;1.50;89.60;;;1.73;72.01;99659.53;4964421;28;20051;-88
2020/12/10 05:23:33;;;;;;;40.88;18.98;;;1.50;89.80;;;1.73;72.06;99662.22;4971861;28;20102;-88
2020/12/10 05:26:04;;;;;;;41.00;20.20;;;1.50;89.70;;;1.68;72.45;99663.66;4971438;28;20133;-87
2020/12/10 05:28:44;;;;;;;40.67;18.83;;;1.50;89.70;;;1.66;72.66;99663.78;4971701;28;20046;-88
2020/12/10 05:31:21;;;;;;;45.17;21.45;;;1.50;89.70;;;1.69;72.56;99666.16;4970446;28;20051;-88
2020/12/10 05:33:56;;;;;;;48.88;22.45;;;1.50;89.60;;;1.67;72.15;99665.47;4955336;28;20058;-88
2020/12/10 05:36:24;;;;;;;47.50;24.52;;;1.70;89.70;;;1.67;72.49;99664.63;4960551;28;20118;-88
2020/12/10 05:39:03;;;;;;;44.13;20.67;;;1.40;89.50;;;1.59;71.39;99656.50;4952626;28;20074;-88
2020/12/10 05:41:32;;;;;;;39.88;19.52;;;1.40;89.00;;;1.60;72.14;99659.03;4952773;28;20399;-88
2020/12/10 05:44:14;;;;;;;43.28;21.73;;;1.30;89.40;;;1.59;72.11;99669.91;4952238;28;20054;-88
2020/12/10 05:46:41;;;;;;;49.08;22.08;;;1.30;89.50;;;1.58;71.96;99657.47;4970640;28;20039;-88
2020/12/10 05:49:11;;;;;;;44.75;22.27;;;1.30;89.20;;;1.60;71.58;99663.53;4971995;28;20479;-88
2020/12/10 05:51:44;;;;;;;44.28;20.77;;;1.30;89.00;;;1.57;71.71;99662.00;4967017;28;20099;-88
2020/12/10 05:54:12;;;;;;;47.95;22.55;;;1.30;88.80;;;1.58;71.40;99665.50;4971338;28;20122;-88
2020/12/10 05:56:54;;;;;;;44.85;20.90;;;1.30;89.10;;;1.56;71.21;99661.16;4971784;28;20098;-88
2020/12/10 05:59:23;;;;;;;42.40;20.30;;;1.30;89.00;;;1.51;71.12;99663.44;4971833;28;20496;-88
2020/12/10 06:01:50;;;;;;;37.15;18.20;;;1.20;88.70;;;1.48;71.07;99663.72;4971941;28;20050;-88
2020/12/10 06:04:20;;;;;;;38.70;19.52;;;1.20;88.70;;;1.44;71.26;99672.22;4971545;28;20142;-88
2020/12/10 06:06:51;;;;;;;38.42;20.95;;;1.10;88.80;;;1.40;71.23;99666.28;4972261;28;20035;-87
2020/12/10 06:09:19;;;;;;;38.83;18.50;;;1.10;88.80;;;1.37;71.62;99666.56;4970391;28;20051;-88
2020/12/10 06:11:48;;;;;;;42.35;19.35;;;1.10;88.80;;;1.40;71.60;99662.78;4971546;28;20074;-88
2020/12/10 06:14:15;;;;;;;40.67;20.08;;;1.00;89.00;;;1.38;71.67;99662.06;4971151;28;20095;-88
2020/12/10 06:16:43;;;;;;;44.35;20.75;;;1.00;89.40;;;1.42;71.79;99661.63;4974452;28;20081;-88
2020/12/10 06:19:10;;;;;;;42.50;20.98;;;1.10;89.60;;;1.35;71.54;99663.19;4974897;28;20072;-83
2020/12/10 06:21:42;;;;;;;43.28;19.98;;;1.00;88.90;;;1.31;71.37;99664.47;4974554;28;20046;-81
2020/12/10 06:24:35;;;;;;;45.20;20.90;;;1.00;88.90;;;1.28;71.78;99662.13;4977029;28;20055;-82
2020/12/10 06:27:24;;;;;;;47.30;21.52;;;1.00;89.10;;;1.29;71.76;99663.78;4977136;28;20055;-83
2020/12/10 06:30:09;;;;;;;43.63;21.15;;;1.00;89.10;;;1.27;71.69;99671.13;4977497;28;20074;-84
2020/12/10 06:32:43;;;;;;;43.45;19.90;;;0.90;89.00;;;1.26;72.13;99685.53;4979559;28;20047;-83
2020/12/10 06:35:30;;;;;;;44.65;19.90;;;1.00;89.10;;;1.27;72.08;99689.88;4979742;28;20046;-84
2020/12/10 06:37:57;;;;;;;41.97;19.92;;;0.90;89.20;;;1.25;71.82;99695.38;4981020;28;20122;-83
2020/12/10 06:41:07;;;;;;;49.35;20.52;;;0.90;89.30;;;1.31;71.97;99699.31;4975213;28;20507;-84
2020/12/10 06:43:36;;;;;;;46.05;21.05;;;0.90;89.60;;;1.31;71.86;99699.31;4978274;28;20070;-83
2020/12/10 06:46:04;;;;;;;47.22;22.35;;;1.00;89.70;;;1.33;72.03;99698.22;4961907;28;20758;-83
2020/12/10 06:48:42;;;;;;;45.30;21.92;;;1.00;89.70;;;1.37;71.79;99696.06;4959648;28;20067;-83
2020/12/10 06:51:14;;;;;;;46.38;22.40;;;1.00;89.60;;;1.37;71.87;99688.00;4958265;28;20066;-84
2020/12/10 06:53:41;;;;;;;47.65;22.92;;;1.00;89.60;;;1.40;71.73;99690.41;4958579;28;20051;-84
2020/12/10 06:56:11;;;;;;;46.28;22.90;;;1.00;89.70;;;1.36;71.83;99687.19;4958370;28;20066;-84
2020/12/10 06:58:50;;;;;;;47.85;23.38;;;1.00;89.60;;;1.36;72.35;99683.66;4960541;28;20070;-83
2020/12/10 07:01:29;;;;;;;47.88;22.50;;;1.00;89.60;;;1.36;71.73;99686.34;4960045;28;20070;-83
2020/12/10 07:04:21;;;;;;;48.38;22.63;;;1.00;89.30;;;1.31;71.70;99693.97;4958999;28;20051;-82
2020/12/10 07:07:11;;;;;;;49.90;21.83;;;1.10;89.20;;;1.25;71.71;99695.38;4953331;28;20052;-82
2020/12/10 07:10:07;;;;;;;44.83;21.40;;;0.90;89.10;;;1.26;71.69;99691.72;4953817;28;20114;-83
2020/12/10 07:12:40;;;;;;;44.10;21.20;;;0.90;89.30;;;1.29;71.52;99695.94;4954545;29;20286;-83
2020/12/10 07:15:12;;;;;;;47.33;22.08;;;0.90;89.50;;;1.29;71.32;99690.59;4969646;28;20082;-83
2020/12/10 07:17:46;;;;;;;;;;;0.90;89.50;;;1.23;71.49;99694.69;4974404;28;20055;-83
2020/12/10 07:20:29;;;;;;;40.60;19.00;;;0.90;89.20;;;1.17;71.40;99690.75;4973219;28;19961;-83
2020/12/10 07:22:56;;;;;;;41.70;20.25;;;0.80;89.00;;;1.16;71.65;99691.75;4971944;28;20050;-83
2020/12/10 07:25:23;;;;;;;44.20;21.83;;;0.80;89.10;;;1.15;71.67;99694.59;4972297;28;20073;-83
2020/12/10 07:27:50;;;;;;;43.40;21.40;;;0.80;89.20;;;1.12;71.47;99689.50;4971947;28;20047;-83
2020/12/10 07:30:19;;;;;;;45.67;22.85;;;0.80;89.10;;;1.13;71.96;99693.88;4976317;28;20521;-84
2020/12/10 07:35:34;;;;;;;;;;;0.90;89.70;;;1.21;72.38;99690.47;4987453;28;20396;-84
2020/12/10 07:38:14;;;;;;;47.78;21.83;;;0.90;89.70;;;1.23;72.09;99692.00;4987074;28;20309;-84
2020/12/10 07:40:44;;;;;;;46.08;21.52;;;0.90;89.70;;;1.27;72.27;99698.78;4986376;28;20078;-83
2020/12/10 07:46:01;;;;;;;45.45;22.30;;;0.90;89.90;;;1.26;72.17;99702.47;4983817;28;20074;-84
2020/12/10 07:48:35;;;;;;;48.55;22.23;;;1.00;89.90;;;1.24;72.31;99700.88;4983092;28;20058;-84
2020/12/10 07:51:05;;;;;;;44.63;21.80;;;0.90;89.90;;;1.26;72.38;99701.63;4981538;28;20050;-84
2020/12/10 07:53:33;;;;;;;42.90;21.40;;;1.00;89.90;;;1.24;72.34;99698.22;4978929;28;20101;-84
2020/12/10 07:56:09;;;;;;;44.38;21.60;;;0.90;89.60;;;1.22;71.62;99706.41;4988166;28;20046;-82
2020/12/10 07:58:48;;;;;;;46.42;20.98;;;0.90;89.50;;;1.19;72.00;99701.34;4965935;28;20082;-82
2020/12/10 08:01:19;;;;;;;43.28;20.33;;;0.90;89.60;;;1.26;71.76;99702.47;4959704;28;20071;-81
2020/12/10 08:03:54;;;;;;;46.10;20.83;;;0.90;89.60;;;1.22;71.74;99700.19;4959457;29;20051;-82
2020/12/10 08:06:30;;;;;;;46.75;22.02;;;0.90;89.50;;;1.17;71.84;99706.00;4955547;29;20128;-83
2020/12/10 08:08:59;;;;;;;44.05;21.13;;;0.90;89.60;;;1.17;72.43;99704.16;4956073;28;20085;-83
2020/12/10 08:11:26;;;;;;;45.55;21.58;;;0.80;89.50;;;1.18;72.06;99707.66;4954555;28;20548;-83
2020/12/10 08:13:59;;;;;;;48.33;22.08;;;0.90;89.60;;;1.20;72.33;99700.38;4962310;28;20101;-83
2020/12/10 08:16:39;;;;;;;44.58;21.60;;;1.00;89.80;;;1.19;72.48;99703.19;4974134;28;20050;-83
2020/12/10 08:19:18;;;;;;;46.85;22.10;;;0.90;90.00;;;1.14;72.77;99699.09;4974569;28;20419;-83
2020/12/10 08:21:48;;;;;;;46.20;21.13;;;0.90;89.70;;;1.14;72.44;99706.28;4974266;28;20042;-83
2020/12/10 08:24:33;;;;;;;46.35;22.45;;;0.90;89.80;;;1.19;72.56;99704.03;4973803;28;20074;-84
2020/12/10 08:26:59;;;;;;;45.20;21.58;;;0.90;89.80;;;1.14;72.64;99696.41;4958774;28;20043;-83
2020/12/10 08:29:47;;;;;;;44.05;21.67;;;0.90;89.60;;;1.16;72.94;99697.13;4963666;28;20069;-83
2020/12/10 08:32:18;;;;;;;42.17;19.75;;;0.90;90.00;;;1.22;72.81;99694.84;4961734;28;20034;-83
2020/12/10 08:35:17;;;;;;;43.25;21.15;;;0.90;90.00;;;1.21;72.85;99695.84;4959116;28;20043;-83
2020/12/10 08:38:06;;;;;;;45.60;21.50;;;0.90;90.00;;;1.23;73.02;99692.00;4960928;28;20051;-83
2020/12/10 08:43:17;;;;;;;47.17;21.80;;;1.00;90.30;;;1.27;73.26;99698.78;4954487;29;20054;-83
2020/12/10 08:48:32;;;;;;;42.90;20.67;;;1.10;90.50;;;1.35;73.32;99700.72;4957914;29;20086;-83
2020/12/10 08:51:02;;;;;;;48.70;22.17;;;1.10;90.70;;;1.36;73.69;99692.53;4961998;29;20308;-83
2020/12/10 08:53:30;;;;;;;46.90;22.05;;;1.10;90.60;;;1.40;73.45;99689.59;4959768;28;20083;-83
2020/12/10 08:56:34;;;;;;;47.05;21.88;;;1.20;90.80;;;1.42;73.63;99688.44;4961502;28;20047;-83
2020/12/10 08:59:07;;;;;;;47.80;23.10;;;1.20;90.70;;;1.48;73.68;99685.16;4962097;28;20079;-83
2020/12/10 09:01:37;;;;;;;51.63;21.92;;;1.30;90.90;;;1.49;73.65;99689.53;4962629;28;20393;-83
2020/12/10 09:04:04;;;;;;;48.30;22.63;;;1.40;90.90;;;1.56;73.90;99687.97;4961037;28;20104;-83
2020/12/10 09:09:36;;;;;;;49.97;23.73;;;1.50;91.10;;;1.63;74.29;99672.13;4955638;29;20058;-85
2020/12/10 09:12:03;;;;;;;52.40;25.05;;;1.50;91.10;;;1.65;73.74;99671.97;4954190;29;20050;-84
2020/12/10 09:14:35;;;;;;;48.78;24.38;;;1.50;91.10;;;1.63;74.20;99676.66;4955512;28;20950;-84
2020/12/10 09:17:02;;;;;;;48.47;22.98;;;1.50;91.10;;;1.66;74.32;99673.69;4956222;29;20405;-84
2020/12/10 09:19:34;;;;;;;50.65;23.25;;;1.60;91.20;;;1.70;74.53;99678.59;4956655;29;20074;-84
2020/12/10 09:22:10;;;;;;;51.28;23.77;;;1.60;91.00;;;1.73;74.43;99680.13;4961461;28;20051;-85
2020/12/10 09:27:21;;;;;;;49.20;23.63;;;1.70;91.00;;;1.79;74.75;99695.66;4957589;29;20075;-84
2020/12/10 09:32:36;;;;;;;45.10;22.20;;;1.80;91.10;;;1.86;74.86;99691.34;4958496;29;20423;-85
2020/12/10 09:35:06;;;;;;;46.88;22.38;;;1.80;91.10;;;1.84;74.56;99687.97;4978136;28;20051;-85
2020/12/10 09:37:34;;;;;;;46.57;22.73;;;1.80;91.00;;;1.86;75.21;99683.31;4977432;28;20067;-84
2020/12/10 09:40:02;;;;;;;54.00;23.42;;;1.90;91.20;;;1.89;74.93;99679.50;4977118;28;20381;-84
2020/12/10 09:42:30;;;;;;;46.95;24.25;;;1.90;91.20;;;1.94;74.60;99678.06;4979541;28;20066;-85
2020/12/10 09:44:57;;;;;;;50.53;22.83;;;1.90;91.20;;;1.94;75.12;99679.88;4980487;28;20054;-84
2020/12/10 09:47:24;;;;;;;45.67;22.38;;;1.90;91.30;;;1.95;75.16;99682.41;4978108;28;20078;-85
2020/12/10 09:49:53;;;;;;;47.85;22.75;;;2.00;91.10;;;1.98;74.90;99688.47;4978445;28;20047;-84
2020/12/10 09:56:00;;;;;;;52.30;23.40;;;2.10;91.10;;;2.11;75.40;99694.31;4995193;28;20423;-84
2020/12/10 09:58:27;;;;;;;47.85;22.52;;;2.10;91.30;;;2.19;75.34;99704.31;4997180;28;20054;-85
2020/12/10 10:01:09;;;;;;;52.90;23.63;;;2.20;91.30;;;2.23;75.24;99706.56;4981486;28;20047;-85
2020/12/10 10:03:41;;;;;;;46.13;22.13;;;2.20;91.20;;;2.22;74.86;99704.03;4978849;28;20082;-85
2020/12/10 10:06:12;;;;;;;52.13;23.40;;;2.20;91.20;;;2.22;75.65;99704.84;4972390;28;20089;-85
2020/12/10 10:08:39;;;;;;;;;;;2.30;91.40;;;2.26;75.08;99698.19;4967954;28;20046;-84
2020/12/10 10:11:28;;;;;;;46.55;22.08;;;2.30;91.30;;;2.33;75.48;99696.59;4965814;28;19957;-84
2020/12/10 10:14:10;;;;;;;49.00;22.52;;;2.30;91.30;;;2.35;75.42;99699.97;4980382;28;20066;-85
2020/12/10 10:20:13;;;;;;;49.85;22.05;;;2.40;91.20;;;2.32;75.69;99694.03;4980392;28;20125;-84
2020/12/10 10:25:29;;;;;;;45.08;22.25;;;2.50;91.10;;;2.39;75.87;99695.13;4966249;28;20058;-85
2020/12/10 10:30:47;;;;;;;47.47;21.33;;;2.60;91.00;;;2.46;75.70;99687.34;4959878;28;20134;-84
2020/12/10 10:33:24;;;;;;;45.47;22.63;;;2.60;91.10;;;2.46;75.42;99690.00;4970525;28;20074;-84
2020/12/10 10:36:20;;;;;;;48.40;22.50;;;2.60;91.10;;;2.55;74.98;99683.69;4978959;28;20046;-85
2020/12/10 10:38:50;;;;;;;46.20;21.90;;;2.60;91.10;;;2.67;75.03;99677.13;4972897;28;20047;-84
2020/12/10 10:41:16;;;;;;;44.08;21.38;;;2.70;90.90;;;2.80;74.52;99681.22;4959672;29;20057;-84
2020/12/10 10:44:03;;;;;;;43.30;20.90;;;2.70;90.80;;;2.72;74.82;99674.81;4971801;28;20388;-84
2020/12/10 10:46:30;;;;;;;43.00;20.50;;;2.80;90.90;;;2.66;75.20;99680.78;4958066;28;20102;-85
2020/12/10 10:49:18;;;;;;;46.25;21.77;;;2.80;91.10;;;2.64;75.42;99679.25;4967021;28;20050;-84
2020/12/10 10:52:02;;;;;;;46.15;22.13;;;2.90;91.10;;;2.65;75.64;99678.28;4979672;28;20543;-84
2020/12/10 11:00:15;;;;;;;43.08;21.05;;;2.90;91.40;;;2.73;76.08;99660.38;4960677;28;20478;-82
2020/12/10 11:02:48;;;;;;;46.92;21.75;;;2.90;91.30;;;2.76;76.39;99663.75;4962551;28;20056;-81
2020/12/10 11:05:53;;;;;;;47.45;21.33;;;3.00;91.40;;;2.80;75.48;99657.06;4971434;28;20593;-85
2020/12/10 11:11:26;;;;;;;41.30;20.52;;;3.00;91.40;;;2.90;76.17;99644.38;4963833;28;20051;-84
2020/12/10 11:14:10;;;;;;;48.65;21.63;;;3.00;91.10;;;2.94;75.80;99640.38;4968455;28;20172;-84
2020/12/10 11:16:56;;;;;;;50.40;20.38;;;3.10;91.20;;;2.99;75.58;99640.75;4985320;28;20118;-85